Flight Track Log - Related Links

Times and Time Zones

All times are in EDT time to prevent confusion due to time zone crossing. See the N722NG flight status page for this flight to view local times or setup timezone preferences in your user account.

Time Position Orientation Groundspeed Altitude Reporting Facility
EDT Latitude Longitude Course Direction KTS MPH feet Rate Location/Type
Thu 07:56:00 PM 30.5452 -88.3491 250° West  Level Estimated
Thu 07:56:57 PM 30.4680 -88.2670 261° West 180 207 6,000  Level FlightAware ADS-B
Thu 07:57:05 PM 30.4660 -88.2750 254° West 178 205 6,000  Level FlightAware ADS-B
Thu 07:57:13 PM 30.4640 -88.2820 252° West 177 204 6,000  Level FlightAware ADS-B
Thu 07:57:15 PM 30.4640 -88.2830 270° West 176 203 6,000  Level FlightAware ADS-B
Thu 07:57:33 PM 30.4600 -88.3000 255° West 174 200 6,000  Level FlightAware ADS-B
Thu 07:57:41 PM 30.4580 -88.3080 254° West 174 200 6,000  Level FlightAware ADS-B
Thu 07:57:49 PM 30.4560 -88.3150 252° West 174 200 6,000  Level FlightAware ADS-B
Thu 07:57:51 PM 30.4560 -88.3170 270° West 174 200 6,000  Level FlightAware ADS-B
Thu 07:58:09 PM 30.4520 -88.3330 254° West 174 200 6,000  Level FlightAware ADS-B
Thu 07:58:13 PM 30.4510 -88.3360 249° West 175 201 6,000  Level FlightAware ADS-B
Thu 07:58:21 PM 30.4490 -88.3440 254° West 174 200 6,000  Level FlightAware ADS-B
Thu 07:58:27 PM 30.4480 -88.3490 257° West 173 199 6,000  Level FlightAware ADS-B
Thu 07:58:47 PM 30.4450 -88.3610 254° West 175 201 6,000  Level FlightAware ADS-B
Thu 07:58:59 PM 30.4420 -88.3760 257° West 175 201 6,000  Level FlightAware ADS-B
Thu 07:59:05 PM 30.4410 -88.3810 257° West 175 201 6,000  Level FlightAware ADS-B
Thu 07:59:25 PM 30.4360 -88.4000 253° West 175 201 6,000  Level FlightAware ADS-B
Thu 07:59:33 PM 30.4350 -88.4080 262° West 174 200 6,000  Level FlightAware ADS-B
Thu 07:59:35 PM 30.4340 -88.4090 221° Southwest 175 201 6,000  Level FlightAware ADS-B
Thu 07:59:45 PM 30.4320 -88.4200 258° West 174 200 6,000  Level FlightAware ADS-B
Thu 07:59:53 PM 30.4300 -88.4260 249° West 174 200 6,000  Level FlightAware ADS-B
Thu 08:00:01 PM 30.4280 -88.4330 252° West 175 201 6,000  Level FlightAware ADS-B
Thu 08:00:05 PM 30.4280 -88.4370 270° West 175 201 6,000  Level FlightAware ADS-B
Thu 08:00:13 PM 30.4260 -88.4440 252° West 176 203 6,000  Level FlightAware ADS-B
Thu 08:01:30 PM 30.4108 -88.5044 252° West 178 205 6,000  Level Houston Center
Thu 08:02:32 PM 30.3983 -88.5583 255° West 175 201 6,000  Level Houston Center
Thu 08:03:34 PM 30.3828 -88.6239 255° West 175 201 6,000  Level Houston Center
Thu 08:04:36 PM 30.3697 -88.6781 254° West 175 201 6,000  Level Houston Center
Thu 08:05:37 PM 30.3569 -88.7317 255° West 173 199 6,000  Level Houston Center
Thu 08:06:39 PM 30.3442 -88.7861 255° West 175 201 6,000  Level Houston Center
Thu 08:07:41 PM 30.3303 -88.8406 254° West 176 203 6,000  Level Houston Center
Thu 08:08:43 PM 30.3183 -88.8953 256° West 176 203 6,000  Level Houston Center
Thu 08:09:45 PM 30.3036 -88.9589 255° West 176 203 6,000  Level Houston Center
Thu 08:10:46 PM 30.2894 -89.0142 253° West 177 204 6,000  Level Houston Center
Thu 08:11:48 PM 30.2767 -89.0694 255° West 178 205 6,000  Level Houston Center
Thu 08:12:50 PM 30.2633 -89.1233 254° West 176 203 6,000  Level Houston Center
Thu 08:13:52 PM 30.2508 -89.1778 255° West 175 201 6,000  Level Houston Center
Thu 08:14:54 PM 30.2372 -89.2331 254° West 176 203 6,000  Level Houston Center
Thu 08:15:56 PM 30.2242 -89.2881 255° West 177 204 6,000 -255 Level Houston Center
Thu 08:21:11 PM 30.1520 -89.5830 255° West 203 234 4,400 -280 Descending FlightAware ADS-B
Thu 08:21:39 PM 30.1460 -89.6080 254° West 203 234 4,400 -1,200 Level FlightAware ADS-B
Thu 08:22:11 PM 30.1322 -89.6586 254° West 206 237 3,200 -1,348 Descending Houston Center
Thu 08:23:08 PM 30.1219 -89.7094 257° West 201 231 2,400 -1,000 Descending Houston Center
Thu 08:23:17 PM 30.1200 -89.7264 262° West 200 230 2,100 -291 Descending Houston Center
Thu 08:28:59 PM 30.0730 -90.0200 262° West 100 115 700 -227 Descending FlightAware ADS-B
Thu 08:29:27 PM 30.0710 -90.0330 260° West 100 115 700  Level FlightAware ADS-B

Login

Don't have an account? Register now (free) for customized features, flight alerts, and more!